createdAt,value
2022-08-09T00:00:04.700Z,4.47
2022-08-09T00:04:06.221Z,4.75
2022-08-09T00:06:35.056Z,4.70
2022-08-09T00:09:37.909Z,4.45
2022-08-09T00:12:25.338Z,4.60
2022-08-09T00:15:58.111Z,4.47
2022-08-09T00:19:10.238Z,5.03
2022-08-09T00:22:20.957Z,4.07
2022-08-09T00:25:12.660Z,4.90
2022-08-09T00:27:56.295Z,4.50
2022-08-09T00:31:00.545Z,4.30
2022-08-09T00:33:52.123Z,4.80
2022-08-09T00:37:11.324Z,4.20
2022-08-09T00:46:57.672Z,3.65
2022-08-09T00:50:53.850Z,4.80
2022-08-09T00:56:28.462Z,3.60
2022-08-09T00:59:20.223Z,4.38
2022-08-09T01:02:10.107Z,4.20
2022-08-09T01:05:50.777Z,5.07
2022-08-09T01:09:10.911Z,5.03
2022-08-09T01:12:12.793Z,5.03
2022-08-09T01:14:55.067Z,4.97
2022-08-09T01:18:01.103Z,5.53
2022-08-09T01:21:26.116Z,4.60
2022-08-09T01:24:52.278Z,5.30
2022-08-09T01:27:29.190Z,5.13
2022-08-09T01:30:02.401Z,5.22
2022-08-09T01:32:43.938Z,4.70
2022-08-09T01:35:44.758Z,4.40
2022-08-09T01:38:33.986Z,4.32
2022-08-09T01:41:55.598Z,4.10
2022-08-09T01:47:44.815Z,4.35
2022-08-09T01:51:03.740Z,4.05
2022-08-09T01:57:27.524Z,3.78
2022-08-09T02:00:35.493Z,3.63
2022-08-09T02:03:39.822Z,3.95
2022-08-09T02:06:58.824Z,5.95
2022-08-09T02:10:04.167Z,5.30
2022-08-09T02:12:35.145Z,6.15
2022-08-09T02:15:06.398Z,7.28
2022-08-09T02:18:01.498Z,6.55
2022-08-09T02:20:32.681Z,6.18
2022-08-09T02:23:10.675Z,7.68
2022-08-09T02:25:52.462Z,7.10
2022-08-09T02:28:41.668Z,5.47
2022-08-09T02:31:26.090Z,5.55
2022-08-09T02:34:07.120Z,5.53
2022-08-09T02:36:46.766Z,5.38
2022-08-09T02:39:39.740Z,4.93
2022-08-09T02:42:16.798Z,5.63
2022-08-09T02:44:52.652Z,5.10
2022-08-09T02:47:23.389Z,4.60
2022-08-09T02:50:02.404Z,4.60
2022-08-09T02:52:45.008Z,4.70
2022-08-09T02:55:20.892Z,3.88
2022-08-09T02:58:32.094Z,3.95
2022-08-09T03:00:57.888Z,4.05
2022-08-09T03:03:37.174Z,3.97
2022-08-09T03:06:15.850Z,3.92
2022-08-09T03:08:49.219Z,3.55
2022-08-09T03:12:04.442Z,3.53
2022-08-09T03:14:08.063Z,3.60
2022-08-09T03:16:44.728Z,3.63
2022-08-09T03:19:16.674Z,3.47
2022-08-09T03:22:03.220Z,3.47
2022-08-09T03:24:31.717Z,4.20
2022-08-09T03:27:13.134Z,3.30
2022-08-09T03:29:58.017Z,3.53
2022-08-09T03:32:37.389Z,3.53
2022-08-09T03:35:14.978Z,3.40
2022-08-09T03:38:10.589Z,3.47
2022-08-09T03:40:48.220Z,4.18
2022-08-09T03:43:19.005Z,4.20
2022-08-09T03:46:04.228Z,3.60
2022-08-09T03:48:37.444Z,3.92
2022-08-09T03:51:55.814Z,4.10
2022-08-09T03:54:15.363Z,4.50
2022-08-09T03:56:46.708Z,4.25
2022-08-09T03:59:20.805Z,4.28
2022-08-09T04:01:56.595Z,3.83
2022-08-09T04:04:36.331Z,3.90
2022-08-09T04:07:06.485Z,3.85
2022-08-09T04:09:47.597Z,3.88
2022-08-09T04:12:40.656Z,3.70
2022-08-09T04:15:11.697Z,3.55
2022-08-09T04:17:57.817Z,3.38
2022-08-09T04:20:25.534Z,4.22
2022-08-09T04:23:16.800Z,3.13
2022-08-09T04:25:51.601Z,3.42
2022-08-09T04:28:30.772Z,3.10
2022-08-09T04:31:08.270Z,2.75
2022-08-09T04:33:52.713Z,3.15
2022-08-09T04:36:27.708Z,3.50
2022-08-09T04:39:03.296Z,3.50
2022-08-09T04:41:43.841Z,3.28
2022-08-09T04:44:14.781Z,3.38
2022-08-09T04:46:59.580Z,3.35
2022-08-09T04:49:53.155Z,3.65
2022-08-09T04:52:28.477Z,3.13
2022-08-09T04:54:59.328Z,3.00
2022-08-09T04:57:58.415Z,3.35
2022-08-09T05:00:31.782Z,3.33
2022-08-09T05:03:30.328Z,3.10
2022-08-09T05:06:04.432Z,3.70
2022-08-09T05:08:35.281Z,3.38
2022-08-09T05:11:03.866Z,2.78
2022-08-09T05:13:38.860Z,3.90
2022-08-09T05:16:16.237Z,2.97
2022-08-09T05:18:55.520Z,3.42
2022-08-09T05:21:30.348Z,4.53
2022-08-09T05:24:02.140Z,4.05
2022-08-09T05:26:36.565Z,3.35
2022-08-09T05:29:05.150Z,3.45
2022-08-09T05:31:37.123Z,4.03
2022-08-09T05:34:16.975Z,3.17
2022-08-09T05:36:47.137Z,4.90
2022-08-09T05:39:28.992Z,4.20
2022-08-09T05:44:34.995Z,4.15
2022-08-09T05:47:05.641Z,4.88
2022-08-09T05:50:31.135Z,5.95
2022-08-09T05:52:22.247Z,4.40
2022-08-09T05:54:52.608Z,3.85
2022-08-09T05:57:25.182Z,3.35
2022-08-09T06:00:11.579Z,2.85
2022-08-09T06:02:46.508Z,2.90
2022-08-09T06:05:14.178Z,4.35
2022-08-09T06:07:49.608Z,3.88
2022-08-09T06:10:37.943Z,3.10
2022-08-09T06:15:40.873Z,4.13
2022-08-09T06:18:09.086Z,4.13
2022-08-09T06:20:39.147Z,4.10
2022-08-09T06:23:06.277Z,3.30
2022-08-09T06:25:39.169Z,2.95
2022-08-09T06:28:10.482Z,5.20
2022-08-09T06:30:43.416Z,2.97
2022-08-09T06:33:30.345Z,2.85
2022-08-09T06:35:59.277Z,3.00
2022-08-09T06:38:32.196Z,3.00
2022-08-09T06:41:18.060Z,2.78
2022-08-09T06:43:48.335Z,2.90
2022-08-09T06:46:39.134Z,2.95
2022-08-09T06:49:04.838Z,2.58
2022-08-09T06:51:39.828Z,2.67
2022-08-09T06:54:09.143Z,2.70
2022-08-09T06:56:40.138Z,2.65
2022-08-09T07:00:51.563Z,2.63
2022-08-09T07:02:04.447Z,2.67
2022-08-09T07:04:33.081Z,2.90
2022-08-09T07:07:04.768Z,3.40
2022-08-09T07:09:53.634Z,3.05
2022-08-09T07:12:20.406Z,2.55
2022-08-09T07:14:50.714Z,2.30
2022-08-09T07:17:22.031Z,2.65
2022-08-09T07:19:51.035Z,2.08
2022-08-09T07:22:34.197Z,2.50
2022-08-09T07:25:05.286Z,2.65
2022-08-09T07:27:42.606Z,2.38
2022-08-09T07:30:14.899Z,2.40
2022-08-09T07:32:43.115Z,2.53
2022-08-09T07:35:14.856Z,2.60
2022-08-09T07:37:45.830Z,2.17
2022-08-09T07:40:26.831Z,2.00
2022-08-09T07:42:59.165Z,2.30
2022-08-09T07:45:37.462Z,2.30
2022-08-09T07:48:25.868Z,2.00
2022-08-09T07:51:09.014Z,1.60
2022-08-09T07:54:06.725Z,2.10
2022-08-09T07:56:38.749Z,2.38
2022-08-09T07:59:15.772Z,2.22
2022-08-09T08:01:53.722Z,2.17
2022-08-09T08:04:25.495Z,1.95
2022-08-09T08:07:00.085Z,1.70
2022-08-09T08:09:45.758Z,1.73
2022-08-09T08:12:27.356Z,1.80
2022-08-09T08:14:57.215Z,2.40
2022-08-09T08:17:52.217Z,1.90
2022-08-09T08:20:15.029Z,1.77
2022-08-09T08:22:42.111Z,1.80
2022-08-09T08:25:13.614Z,2.28
2022-08-09T08:27:42.859Z,1.70
2022-08-09T08:30:13.728Z,1.70
2022-08-09T08:32:52.425Z,1.58
2022-08-09T08:35:22.270Z,1.65
2022-08-09T08:38:04.691Z,1.67
2022-08-09T08:40:38.862Z,1.60
2022-08-09T08:43:13.161Z,1.38
2022-08-09T08:46:00.145Z,1.35
2022-08-09T08:48:39.758Z,1.40
2022-08-09T08:51:18.972Z,1.48
2022-08-09T08:54:03.160Z,1.77
2022-08-09T08:56:35.654Z,1.90
2022-08-09T08:59:19.446Z,1.33
2022-08-09T09:01:52.701Z,1.23
2022-08-09T09:04:31.321Z,1.55
2022-08-09T09:07:11.178Z,1.52
2022-08-09T09:10:02.139Z,1.55
2022-08-09T09:12:36.126Z,1.60
2022-08-09T09:15:06.374Z,1.95
2022-08-09T09:17:48.349Z,1.50
2022-08-09T09:20:20.580Z,1.58
2022-08-09T09:23:01.707Z,1.50
2022-08-09T09:26:01.500Z,1.63
2022-08-09T09:29:02.092Z,1.42
2022-08-09T09:32:04.491Z,1.48
2022-08-09T09:34:15.297Z,1.75
2022-08-09T09:38:27.681Z,2.20
2022-08-09T09:41:33.272Z,1.60
2022-08-09T09:47:56.185Z,1.30
2022-08-09T09:50:57.095Z,1.42
2022-08-09T09:53:57.628Z,1.63
2022-08-09T09:58:02.834Z,1.63
2022-08-09T10:00:36.122Z,1.60
2022-08-09T10:04:03.249Z,1.30
2022-08-09T10:07:18.395Z,1.88
2022-08-09T10:10:55.637Z,1.70
2022-08-09T10:17:58.421Z,2.05
2022-08-09T10:24:00.462Z,3.00
2022-08-09T10:27:17.238Z,1.90
2022-08-09T10:34:33.110Z,1.50
2022-08-09T10:37:04.884Z,1.55
2022-08-09T10:39:49.359Z,1.88
2022-08-09T10:42:18.519Z,1.70
2022-08-09T10:44:54.462Z,1.90
2022-08-09T10:48:13.382Z,1.67
2022-08-09T10:51:06.745Z,1.95
2022-08-09T10:53:59.691Z,1.65
2022-08-09T10:56:38.688Z,1.58
2022-08-09T10:59:31.030Z,1.50
2022-08-09T11:03:15.455Z,1.52
2022-08-09T11:05:24.656Z,1.77
2022-08-09T11:45:08.649Z,1.77
2022-08-09T11:48:27.225Z,1.77
2022-08-09T11:54:34.777Z,1.80
2022-08-09T11:57:47.480Z,1.55
2022-08-09T12:00:37.706Z,1.75
2022-08-09T12:03:55.540Z,1.67
2022-08-09T12:06:32.609Z,1.48
2022-08-09T12:09:19.584Z,1.60
2022-08-09T12:12:13.042Z,1.60
2022-08-09T12:15:07.302Z,2.00
2022-08-09T12:17:43.655Z,1.35
2022-08-09T12:20:24.944Z,1.83
2022-08-09T12:23:03.652Z,1.65
2022-08-09T12:25:37.279Z,1.67
2022-08-09T12:31:59.434Z,1.70
2022-08-09T12:35:19.472Z,1.55
2022-08-09T12:45:34.104Z,2.28
2022-08-09T12:48:27.841Z,2.05
2022-08-09T12:51:03.986Z,2.00
2022-08-09T12:56:12.832Z,1.92
2022-08-09T12:58:07.099Z,1.58
2022-08-09T13:04:41.721Z,1.88
2022-08-09T13:07:51.014Z,2.25
2022-08-09T13:10:24.105Z,1.60
2022-08-09T13:14:42.858Z,1.75
2022-08-09T13:18:29.726Z,1.73
2022-08-09T13:22:35.953Z,1.90
2022-08-09T13:24:53.541Z,1.70
2022-08-09T13:32:16.179Z,1.80
2022-08-09T13:42:32.986Z,1.50
2022-08-09T13:46:42.471Z,1.92
2022-08-09T13:52:29.562Z,1.70
2022-08-09T13:55:28.925Z,2.20
2022-08-09T13:58:03.024Z,1.73
2022-08-09T14:00:37.949Z,2.20
2022-08-09T14:03:58.094Z,2.13
2022-08-09T14:06:02.660Z,2.10
2022-08-09T14:08:31.589Z,2.03
2022-08-09T14:10:59.679Z,2.20
2022-08-09T14:14:22.229Z,1.75
2022-08-09T14:16:28.131Z,1.70
2022-08-09T14:18:57.232Z,1.90
2022-08-09T14:21:29.237Z,2.00
2022-08-09T14:24:00.966Z,1.57
2022-08-09T14:29:46.394Z,2.03
2022-08-09T14:31:57.522Z,1.63
2022-08-09T14:34:30.966Z,1.77
2022-08-09T14:37:09.010Z,2.17
2022-08-09T14:39:45.395Z,1.90
2022-08-09T14:42:40.690Z,1.85
2022-08-09T14:46:46.317Z,1.77
2022-08-09T14:48:02.505Z,1.60
2022-08-09T14:50:52.132Z,1.70
2022-08-09T14:53:45.537Z,1.60
2022-08-09T14:56:26.789Z,1.80
2022-08-09T14:59:24.613Z,1.55
2022-08-09T15:02:03.408Z,1.60
2022-08-09T15:04:33.065Z,1.73
2022-08-09T15:07:11.248Z,1.80
2022-08-09T15:10:10.532Z,1.75
2022-08-09T15:12:35.954Z,2.25
2022-08-09T15:15:11.351Z,1.60
2022-08-09T15:17:51.515Z,1.60
2022-08-09T15:22:00.952Z,1.40
2022-08-09T15:24:03.598Z,1.70
2022-08-09T15:26:02.100Z,1.58
2022-08-09T15:28:35.453Z,1.60
2022-08-09T15:31:18.853Z,1.63
2022-08-09T15:37:11.698Z,1.35
2022-08-09T15:40:00.239Z,1.55
2022-08-09T15:42:53.297Z,1.48
2022-08-09T15:46:07.510Z,1.50
2022-08-09T15:49:22.778Z,1.55
2022-08-09T15:55:54.036Z,1.45
2022-08-09T16:02:13.568Z,1.67
2022-08-09T16:05:06.720Z,1.65
2022-08-09T16:07:46.033Z,1.70
2022-08-09T16:10:56.257Z,1.95
2022-08-09T16:14:03.978Z,1.52
2022-08-09T16:16:28.199Z,1.95
2022-08-09T16:19:02.840Z,1.48
2022-08-09T16:32:18.805Z,1.67
2022-08-09T16:50:31.645Z,1.83
2022-08-09T17:15:59.711Z,2.17
2022-08-09T18:05:55.542Z,2.95
2022-08-09T18:13:39.022Z,2.63
2022-08-09T18:41:34.398Z,2.50
2022-08-09T19:17:04.202Z,2.50
2022-08-09T19:19:50.586Z,2.42
2022-08-09T19:22:26.390Z,3.10
2022-08-09T19:25:11.835Z,3.08
2022-08-09T19:27:51.056Z,2.53
2022-08-09T19:33:38.343Z,3.88
2022-08-09T19:36:11.813Z,2.95
2022-08-09T19:38:54.593Z,3.00
2022-08-09T19:41:33.190Z,2.70
2022-08-09T19:44:17.739Z,2.83
2022-08-09T19:47:23.537Z,3.40
2022-08-09T19:50:09.845Z,3.92
2022-08-09T19:52:49.638Z,5.20
2022-08-09T19:56:03.261Z,4.93
2022-08-09T19:58:35.165Z,4.30
2022-08-09T20:01:12.313Z,4.35
2022-08-09T20:04:10.892Z,4.10
2022-08-09T20:06:58.672Z,4.05
2022-08-09T20:09:44.493Z,3.55
2022-08-09T20:12:30.169Z,3.58
2022-08-09T20:16:39.104Z,3.63
2022-08-09T20:19:41.882Z,3.78
2022-08-09T20:22:04.772Z,3.58
2022-08-09T20:27:43.416Z,3.70
2022-08-09T20:30:46.485Z,4.55
2022-08-09T20:33:27.930Z,3.75
2022-08-09T20:36:29.871Z,3.80
2022-08-09T20:40:13.746Z,3.97
2022-08-09T20:42:23.931Z,4.95
2022-08-09T20:45:59.384Z,4.60
2022-08-09T20:48:41.973Z,3.53
2022-08-09T20:51:40.935Z,3.53
2022-08-09T20:54:32.788Z,4.07
2022-08-09T20:57:05.400Z,4.05
2022-08-09T21:00:20.333Z,3.22
2022-08-09T21:02:55.434Z,3.88
2022-08-09T21:06:15.807Z,4.30
2022-08-09T21:18:20.929Z,3.78
2022-08-09T21:20:54.605Z,3.42
2022-08-09T21:23:50.939Z,3.72
2022-08-09T21:26:24.079Z,3.33
2022-08-09T21:29:01.391Z,3.40
2022-08-09T21:31:49.102Z,3.20
2022-08-09T21:34:28.586Z,3.40
2022-08-09T21:36:56.775Z,3.30
2022-08-09T21:39:41.693Z,3.25
2022-08-09T21:42:17.886Z,2.92
2022-08-09T21:45:07.958Z,3.10
2022-08-09T21:47:54.019Z,3.42
2022-08-09T21:50:38.630Z,3.35
2022-08-09T21:53:15.732Z,3.00
2022-08-09T21:55:51.126Z,3.13
2022-08-09T21:58:18.522Z,3.38
2022-08-09T22:00:48.734Z,3.13
2022-08-09T22:03:25.498Z,2.97
2022-08-09T22:05:54.934Z,3.25
2022-08-09T22:08:25.624Z,3.28
2022-08-09T22:11:50.075Z,3.85
2022-08-09T22:13:45.750Z,4.07
2022-08-09T22:16:12.966Z,3.70
2022-08-09T22:18:53.262Z,3.70
2022-08-09T22:21:45.025Z,3.58
2022-08-09T22:24:16.973Z,4.10
2022-08-09T22:26:55.724Z,3.42
2022-08-09T23:55:22.731Z,3.25
2022-08-09T23:58:56.257Z,3.50
